Time;durP1;ratioP1;P1;durP2;ratioP2;P2;SDS_P1;SDS_P2;PMS_P1;PMS_P2;Temp;Humidity;BMP_temperature;BMP_pressure;BME280_temperature;BME280_humidity;BME280_pressure;Samples;Min_cycle;Max_cycle;Signal;HPM_P1;HPM_P2
2022/11/16 00:01:47;;;;;;;0.10;0.10;;;;;;;11.19;100.00;99796.16;4987000;28;20120;-72
2022/11/16 00:04:12;;;;;;;0.05;0.05;;;;;;;10.92;100.00;99789.75;5007551;28;20381;-71
2022/11/16 00:06:38;;;;;;;0.10;0.10;;;;;;;10.93;100.00;99786.09;5008506;28;20527;-72
2022/11/16 00:09:21;;;;;;;0.00;0.00;;;;;;;10.94;100.00;99790.47;5018694;28;20030;-72
2022/11/16 00:11:54;;;;;;;0.10;0.10;;;;;;;10.87;100.00;99789.34;4999793;28;20042;-71
2022/11/16 00:14:20;;;;;;;0.10;0.10;;;;;;;10.90;100.00;99775.63;5003202;28;20037;-71
2022/11/16 00:16:46;;;;;;;0.10;0.10;;;;;;;10.90;100.00;99780.19;5007697;28;20128;-71
2022/11/16 00:19:11;;;;;;;0.10;0.10;;;;;;;10.84;100.00;99776.25;5006253;28;20402;-71
2022/11/16 00:21:37;;;;;;;0.10;0.10;;;;;;;10.77;100.00;99777.81;5008295;28;20030;-72
2022/11/16 00:24:03;;;;;;;0.10;0.10;;;;;;;11.00;100.00;99772.91;5005523;28;20068;-72
2022/11/16 00:26:29;;;;;;;0.10;0.10;;;;;;;10.96;100.00;99774.22;5007245;28;20534;-71
2022/11/16 00:28:55;;;;;;;0.00;0.00;;;;;;;10.64;100.00;99762.88;5001942;28;20065;-71
2022/11/16 00:31:20;;;;;;;0.10;0.10;;;;;;;10.79;100.00;99776.66;5007000;28;20361;-72
2022/11/16 00:33:46;;;;;;;0.10;0.10;;;;;;;10.79;100.00;99779.34;5005655;28;20026;-70
2022/11/16 00:36:12;;;;;;;0.10;0.10;;;;;;;10.89;100.00;99786.53;5007052;28;20140;-72
2022/11/16 00:38:38;;;;;;;0.03;0.03;;;;;;;11.01;100.00;99776.44;5003299;28;20356;-72
2022/11/16 00:41:04;;;;;;;0.10;0.10;;;;;;;10.80;100.00;99786.41;5003625;28;20036;-71
2022/11/16 00:43:29;;;;;;;0.10;0.10;;;;;;;10.88;100.00;99776.78;5006282;28;20052;-71
2022/11/16 00:45:55;;;;;;;0.10;0.10;;;;;;;10.82;100.00;99775.56;5003483;28;20034;-72
2022/11/16 00:48:20;;;;;;;0.10;0.10;;;;;;;10.85;100.00;99777.94;4998875;28;20036;-74
2022/11/16 00:50:45;;;;;;;0.10;0.10;;;;;;;11.02;100.00;99776.28;5003703;28;20372;-72
2022/11/16 00:53:12;;;;;;;0.10;0.10;;;;;;;10.90;100.00;99786.38;5001361;28;20065;-73
2022/11/16 00:55:38;;;;;;;0.10;0.10;;;;;;;10.80;100.00;99767.63;5001957;28;20117;-72
2022/11/16 00:58:03;;;;;;;0.10;0.10;;;;;;;10.92;100.00;99786.25;4999265;28;20038;-72
2022/11/16 01:00:29;;;;;;;0.00;0.00;;;;;;;10.96;100.00;99784.97;5003785;28;20112;-71
2022/11/16 01:02:54;;;;;;;0.10;0.10;;;;;;;10.85;100.00;99786.00;5002079;28;20065;-73
2022/11/16 01:05:20;;;;;;;0.00;0.00;;;;;;;11.05;100.00;99781.38;5000463;28;20102;-71
2022/11/16 01:07:46;;;;;;;0.10;0.10;;;;;;;10.69;100.00;99769.66;5002011;28;20034;-74
2022/11/16 01:10:17;;;;;;;0.10;0.10;;;;;;;11.03;100.00;99796.78;5001047;28;20045;-73
2022/11/16 01:12:44;;;;;;;0.10;0.10;;;;;;;10.78;100.00;99769.59;4997136;28;20462;-72
2022/11/16 01:15:09;;;;;;;0.10;0.10;;;;;;;10.95;100.00;99780.59;5001259;28;20040;-71
2022/11/16 01:17:36;;;;;;;0.10;0.10;;;;;;;10.91;100.00;99768.44;5002176;28;20041;-74
2022/11/16 01:20:04;;;;;;;0.10;0.10;;;;;;;10.80;100.00;99759.56;5002295;28;20030;-71
2022/11/16 01:22:30;;;;;;;0.08;0.08;;;;;;;10.82;100.00;99755.91;4999347;28;20029;-71
2022/11/16 01:24:55;;;;;;;0.10;0.10;;;;;;;10.91;100.00;99744.28;5001909;28;20048;-75
2022/11/16 01:27:21;;;;;;;0.10;0.10;;;;;;;10.90;100.00;99745.25;4988341;28;20029;-73
2022/11/16 01:29:46;;;;;;;0.10;0.10;;;;;;;10.87;100.00;99732.97;5000967;28;20534;-72
2022/11/16 01:32:11;;;;;;;0.10;0.10;;;;;;;10.73;100.00;99730.78;5000659;28;20026;-73
2022/11/16 01:34:36;;;;;;;0.10;0.10;;;;;;;10.83;100.00;99742.34;5016526;28;20034;-72
2022/11/16 01:37:02;;;;;;;0.10;0.10;;;;;;;10.77;100.00;99708.84;5001884;28;20061;-79
2022/11/16 01:39:27;;;;;;;0.10;0.10;;;;;;;10.72;100.00;99738.00;4992304;28;20400;-72
2022/11/16 01:41:52;;;;;;;0.10;0.10;;;;;;;10.71;100.00;99735.44;4998903;28;20025;-73
2022/11/16 01:44:30;;;;;;;0.10;0.10;;;;;;;10.91;100.00;99771.13;5001962;28;20029;-75
2022/11/16 01:46:56;;;;;;;0.10;0.10;;;;;;;10.79;100.00;99738.25;5001586;28;20479;-73
2022/11/16 01:49:23;;;;;;;0.05;0.05;;;;;;;10.80;100.00;99734.56;5004215;28;20036;-72
2022/11/16 01:51:52;;;;;;;0.00;0.00;;;;;;;10.77;100.00;99745.59;5001607;28;20029;-71
2022/11/16 01:54:17;;;;;;;0.10;0.10;;;;;;;10.64;100.00;99736.03;5000687;28;20026;-71
2022/11/16 01:56:44;;;;;;;0.10;0.10;;;;;;;10.67;100.00;99731.38;5000335;28;20041;-71
2022/11/16 01:59:10;;;;;;;0.10;0.10;;;;;;;10.46;100.00;99711.78;5002438;28;20066;-74
2022/11/16 02:01:36;;;;;;;0.10;0.10;;;;;;;10.46;100.00;99710.97;4998789;28;20025;-72
2022/11/16 02:04:01;;;;;;;0.10;0.10;;;;;;;10.56;100.00;99718.97;5002649;28;20037;-74
2022/11/16 02:06:26;;;;;;;0.10;0.10;;;;;;;10.61;100.00;99722.06;5000233;28;20025;-72
2022/11/16 02:12:23;;;;;;;0.10;0.10;;;;;;;10.57;100.00;99717.97;4997656;28;20282;-73
2022/11/16 02:15:33;;;;;;;0.10;0.10;;;;;;;10.62;100.00;99724.59;5001832;28;20038;-72
2022/11/16 02:18:05;;;;;;;0.10;0.10;;;;;;;10.67;100.00;99724.16;4999104;28;20044;-71
2022/11/16 02:20:39;;;;;;;0.10;0.10;;;;;;;10.67;100.00;99721.50;5002097;28;20410;-71
2022/11/16 02:23:18;;;;;;;0.10;0.10;;;;;;;10.60;100.00;99696.22;4999708;28;20030;-71
2022/11/16 02:26:22;;;;;;;0.08;0.08;;;;;;;10.65;100.00;99715.41;4998956;28;20057;-72
2022/11/16 02:29:08;;;;;;;0.10;0.10;;;;;;;10.75;100.00;99710.00;5003765;28;20115;-73
2022/11/16 02:31:36;;;;;;;0.10;0.10;;;;;;;10.62;100.00;99686.19;5002737;28;20487;-73
2022/11/16 02:34:04;;;;;;;0.10;0.10;;;;;;;10.74;100.00;99706.47;4996141;28;20535;-73
2022/11/16 02:36:30;;;;;;;0.10;0.10;;;;;;;10.62;100.00;99692.38;4999267;28;20438;-72
2022/11/16 02:39:06;;;;;;;0.10;0.10;;;;;;;10.56;100.00;99695.69;5001277;28;20113;-72
2022/11/16 02:41:34;;;;;;;0.10;0.10;;;;;;;10.77;100.00;99695.41;4999906;28;20026;-73
2022/11/16 02:44:02;;;;;;;0.05;0.05;;;;;;;10.71;100.00;99679.94;5001908;28;20472;-72
2022/11/16 02:46:31;;;;;;;0.00;0.00;;;;;;;10.92;100.00;99708.38;4996714;28;20037;-73
2022/11/16 02:48:59;;;;;;;0.10;0.10;;;;;;;10.74;100.00;99684.16;4998905;28;20040;-72
2022/11/16 02:51:25;;;;;;;0.10;0.10;;;;;;;10.67;100.00;99688.41;5000651;28;20395;-71
2022/11/16 02:53:57;;;;;;;0.10;0.10;;;;;;;10.63;100.00;99690.56;4998668;28;20057;-71
2022/11/16 02:56:22;;;;;;;0.10;0.10;;;;;;;10.89;100.00;99695.25;5000201;28;20245;-73
2022/11/16 02:58:48;;;;;;;0.10;0.10;;;;;;;10.83;100.00;99690.47;5005939;28;20088;-73
2022/11/16 03:01:32;;;;;;;0.10;0.10;;;;;;;10.91;100.00;99691.41;5004444;28;20032;-72
2022/11/16 03:04:00;;;;;;;;;;;;;;;10.86;100.00;99714.34;4981242;28;20029;-74
2022/11/16 03:06:32;;;;;;;0.10;0.10;;;;;;;10.69;100.00;99711.44;5003624;28;19963;-76
2022/11/16 03:09:02;;;;;;;0.10;0.10;;;;;;;10.72;100.00;99695.06;4988519;28;20033;-75
2022/11/16 03:14:16;;;;;;;0.10;0.10;;;;;;;10.76;100.00;99717.91;5003571;28;20506;-73
2022/11/16 03:16:44;;;;;;;0.00;0.00;;;;;;;10.57;100.00;99689.31;5004889;28;20033;-74
2022/11/16 03:19:13;;;;;;;0.10;0.10;;;;;;;10.63;100.00;99710.19;5001775;28;20038;-71
2022/11/16 03:21:43;;;;;;;0.10;0.10;;;;;;;10.61;100.00;99705.97;5004908;28;20034;-71
2022/11/16 03:24:08;;;;;;;0.00;0.00;;;;;;;10.61;100.00;99714.00;5002354;28;20021;-71
2022/11/16 03:26:45;;;;;;;0.03;0.03;;;;;;;10.54;100.00;99697.66;4999825;28;20072;-71
2022/11/16 03:29:20;;;;;;;0.10;0.10;;;;;;;10.74;100.00;99709.16;5005754;28;20029;-71
2022/11/16 03:31:50;;;;;;;0.10;0.10;;;;;;;10.67;100.00;99709.88;5002875;28;20739;-71
2022/11/16 03:34:18;;;;;;;0.05;0.05;;;;;;;10.50;100.00;99691.72;5001733;28;20403;-71
2022/11/16 03:36:45;;;;;;;0.10;0.10;;;;;;;10.64;100.00;99716.41;5004820;28;20029;-72
2022/11/16 03:39:15;;;;;;;0.10;0.10;;;;;;;10.71;100.00;99704.09;5005864;28;20038;-73
2022/11/16 03:41:42;;;;;;;0.10;0.10;;;;;;;10.50;100.00;99686.34;5003989;28;20411;-72
2022/11/16 03:44:09;;;;;;;0.10;0.10;;;;;;;10.59;100.00;99695.38;5007043;28;20057;-72
2022/11/16 03:46:34;;;;;;;0.10;0.10;;;;;;;10.60;100.00;99706.97;4991161;28;20041;-72
2022/11/16 03:49:00;;;;;;;0.00;0.00;;;;;;;10.53;100.00;99704.03;5005602;28;20399;-72
2022/11/16 03:51:26;;;;;;;0.10;0.10;;;;;;;10.68;100.00;99708.91;5003113;28;20042;-72
2022/11/16 03:53:51;;;;;;;0.10;0.10;;;;;;;10.68;100.00;99712.44;5001294;28;20638;-72
2022/11/16 03:56:16;;;;;;;0.10;0.10;;;;;;;10.41;100.00;99694.44;5008067;28;20045;-72
2022/11/16 03:58:41;;;;;;;0.00;0.00;;;;;;;10.52;100.00;99723.81;5003117;28;20026;-72
2022/11/16 04:01:07;;;;;;;0.10;0.10;;;;;;;10.45;100.00;99714.63;5006031;28;20040;-72
2022/11/16 04:03:32;;;;;;;0.00;0.00;;;;;;;10.49;100.00;99724.09;5000343;28;20533;-73
2022/11/16 04:25:20;;;;;;;0.10;0.10;;;;;;;10.23;100.00;99724.69;5007783;28;20432;-72
2022/11/16 04:37:47;;;;;;;;;;;;;;;10.27;100.00;99747.56;5006711;28;20129;-72
2022/11/16 04:38:42;;;;;;;0.10;0.10;;;;;;;9.95;100.00;99721.91;5001812;28;20176;-76
2022/11/16 04:42:13;;;;;;;0.00;0.00;;;;;;;10.23;100.00;99750.66;5003650;28;20113;-73
2022/11/16 04:43:53;;;;;;;0.10;0.10;;;;;;;10.05;100.00;99756.78;5003250;28;20037;-76
2022/11/16 04:49:02;;;;;;;0.10;0.10;;;;;;;9.89;100.00;99754.66;5000582;28;20044;-75
2022/11/16 04:51:28;;;;;;;0.00;0.00;;;;;;;9.95;100.00;99769.31;5003744;28;20037;-74
2022/11/16 04:53:53;;;;;;;0.10;0.10;;;;;;;9.64;100.00;99746.19;5001161;28;20128;-74
2022/11/16 04:56:18;;;;;;;0.00;0.00;;;;;;;9.72;100.00;99778.50;4985474;28;20072;-75
2022/11/16 04:58:44;;;;;;;0.00;0.00;;;;;;;9.71;100.00;99784.84;5000683;28;20439;-75
2022/11/16 05:01:09;;;;;;;0.10;0.10;;;;;;;9.65;100.00;99776.53;4998688;28;20084;-74
2022/11/16 05:03:34;;;;;;;0.10;0.10;;;;;;;9.67;100.00;99785.25;4992824;28;20673;-79
2022/11/16 05:05:59;;;;;;;0.10;0.10;;;;;;;9.69;100.00;99765.38;4981611;28;20065;-74
2022/11/16 05:08:25;;;;;;;0.10;0.10;;;;;;;9.77;100.00;99796.00;4998445;28;20452;-74
2022/11/16 05:10:50;;;;;;;0.10;0.10;;;;;;;9.65;100.00;99771.19;4984842;28;20133;-75
2022/11/16 05:13:15;;;;;;;0.10;0.10;;;;;;;9.49;100.00;99751.13;4987034;28;20041;-76
2022/11/16 05:15:44;;;;;;;0.10;0.10;;;;;;;9.73;100.00;99795.44;5000802;28;20037;-75
2022/11/16 05:18:09;;;;;;;0.00;0.00;;;;;;;9.65;100.00;99781.91;5000837;28;20106;-75
2022/11/16 05:26:02;;;;;;;0.10;0.10;;;;;;;9.67;100.00;99812.06;4999207;28;20176;-74
2022/11/16 05:28:27;;;;;;;0.10;0.10;;;;;;;9.60;100.00;99801.06;4999118;28;20496;-74
2022/11/16 05:30:53;;;;;;;0.10;0.10;;;;;;;9.51;100.00;99777.78;5001075;28;20491;-74
2022/11/16 05:33:18;;;;;;;0.10;0.10;;;;;;;9.57;100.00;99799.50;4995072;28;20464;-74
2022/11/16 05:35:43;;;;;;;0.10;0.10;;;;;;;9.54;100.00;99777.47;4997870;28;20030;-76
2022/11/16 05:38:08;;;;;;;0.10;0.10;;;;;;;9.45;100.00;99800.59;4996397;28;20053;-74
2022/11/16 05:40:34;;;;;;;0.00;0.00;;;;;;;9.49;100.00;99795.84;5003342;28;20124;-77
2022/11/16 05:42:59;;;;;;;0.10;0.10;;;;;;;9.59;100.00;99796.69;5004181;28;20104;-76
2022/11/16 05:45:24;;;;;;;0.10;0.10;;;;;;;9.66;100.00;99819.28;5003299;28;20038;-75
2022/11/16 05:47:50;;;;;;;0.10;0.10;;;;;;;9.52;100.00;99815.16;5005041;28;20074;-75
2022/11/16 05:50:15;;;;;;;0.10;0.10;;;;;;;9.32;100.00;99794.66;5003233;28;20539;-75
2022/11/16 05:52:40;;;;;;;0.10;0.10;;;;;;;9.24;100.00;99773.94;5002306;28;20036;-75
2022/11/16 05:55:06;;;;;;;0.10;0.10;;;;;;;9.14;100.00;99787.25;5003443;28;20044;-74
2022/11/16 05:57:31;;;;;;;0.10;0.10;;;;;;;9.09;100.00;99789.53;5004531;28;20491;-75
2022/11/16 05:59:57;;;;;;;0.10;0.10;;;;;;;9.17;100.00;99799.56;5006209;28;20030;-75
2022/11/16 06:02:22;;;;;;;0.10;0.10;;;;;;;9.09;100.00;99787.69;5000868;28;20476;-75
2022/11/16 06:04:47;;;;;;;0.10;0.10;;;;;;;9.15;100.00;99800.53;5004744;28;20061;-75
2022/11/16 06:07:13;;;;;;;0.10;0.10;;;;;;;9.01;100.00;99792.84;5005541;28;20034;-76
2022/11/16 06:09:38;;;;;;;0.10;0.10;;;;;;;8.99;100.00;99794.84;5002773;28;20038;-76
2022/11/16 06:12:04;;;;;;;0.10;0.10;;;;;;;8.94;100.00;99803.25;5001800;28;20676;-74
2022/11/16 06:14:29;;;;;;;0.10;0.10;;;;;;;8.89;100.00;99804.66;5013961;28;20036;-75
2022/11/16 06:16:54;;;;;;;0.10;0.10;;;;;;;8.75;100.00;99812.03;5005469;28;20037;-75
2022/11/16 06:19:19;;;;;;;0.10;0.10;;;;;;;8.58;100.00;99816.19;5003970;28;20033;-75
2022/11/16 06:21:45;;;;;;;0.10;0.10;;;;;;;8.30;100.00;99828.34;4998862;28;20104;-75
2022/11/16 06:24:10;;;;;;;0.10;0.10;;;;;;;8.21;100.00;99830.81;5010187;28;20141;-74
2022/11/16 06:26:35;;;;;;;0.10;0.10;;;;;;;8.17;100.00;99839.25;5004636;28;20117;-75
2022/11/16 06:29:01;;;;;;;0.10;0.10;;;;;;;7.99;100.00;99837.13;5004123;28;20365;-74
2022/11/16 06:31:26;;;;;;;0.10;0.10;;;;;;;7.90;100.00;99836.09;5002630;28;20041;-76
2022/11/16 06:33:51;;;;;;;0.10;0.10;;;;;;;7.73;100.00;99837.47;5003967;28;20037;-76
2022/11/16 06:36:17;;;;;;;0.10;0.10;;;;;;;7.50;100.00;99858.03;5009757;28;20124;-75
2022/11/16 06:38:42;;;;;;;0.10;0.10;;;;;;;7.57;100.00;99843.22;5008249;28;20438;-74
2022/11/16 06:41:07;;;;;;;0.10;0.10;;;;;;;7.59;100.00;99840.41;5008929;28;20542;-74
2022/11/16 06:43:33;;;;;;;0.10;0.10;;;;;;;7.46;100.00;99852.09;5005493;28;20091;-74
2022/11/16 06:45:58;;;;;;;0.10;0.10;;;;;;;7.35;100.00;99847.63;5008106;28;20057;-74
2022/11/16 06:48:23;;;;;;;0.10;0.10;;;;;;;7.42;100.00;99853.31;5003990;28;20042;-74
2022/11/16 06:50:50;;;;;;;0.10;0.10;;;;;;;7.47;100.00;99861.81;5008278;28;20041;-74
2022/11/16 06:53:16;;;;;;;0.10;0.10;;;;;;;7.49;100.00;99864.34;5006351;28;20038;-74
2022/11/16 06:55:41;;;;;;;0.10;0.10;;;;;;;7.44;100.00;99846.03;5008319;28;20040;-74
2022/11/16 06:58:07;;;;;;;0.10;0.10;;;;;;;7.64;100.00;99871.13;5009166;28;20767;-73
2022/11/16 07:00:32;;;;;;;0.10;0.10;;;;;;;7.73;100.00;99877.56;5008168;28;20168;-74
2022/11/16 07:02:58;;;;;;;0.10;0.10;;;;;;;7.57;100.00;99880.59;5005266;28;20087;-74
2022/11/16 07:05:23;;;;;;;0.10;0.10;;;;;;;7.32;100.00;99884.38;5009225;28;20124;-74
2022/11/16 07:07:55;;;;;;;0.10;0.10;;;;;;;7.20;100.00;99883.53;5008145;28;20446;-74
2022/11/16 07:10:21;;;;;;;0.10;0.10;;;;;;;7.11;100.00;99865.59;4985489;28;20037;-74
2022/11/16 07:12:46;;;;;;;0.10;0.10;;;;;;;7.15;100.00;99891.91;5007379;28;20448;-74
2022/11/16 07:15:11;;;;;;;0.10;0.10;;;;;;;7.07;100.00;99893.50;5004949;28;20025;-74
2022/11/16 07:17:37;;;;;;;0.10;0.10;;;;;;;6.85;100.00;99882.66;5007568;28;20040;-74
2022/11/16 07:20:02;;;;;;;0.10;0.10;;;;;;;6.82;100.00;99874.06;5008786;28;20573;-74
2022/11/16 07:22:28;;;;;;;0.10;0.10;;;;;;;7.18;100.00;99881.00;5000894;28;20085;-74
2022/11/16 07:24:53;;;;;;;0.10;0.10;;;;;;;7.13;100.00;99875.16;5006929;28;20040;-75
2022/11/16 07:27:18;;;;;;;0.10;0.10;;;;;;;7.43;100.00;99883.53;4989836;28;20042;-76
2022/11/16 07:29:44;;;;;;;0.10;0.10;;;;;;;7.45;100.00;99871.75;5008087;28;20030;-75
2022/11/16 07:32:09;;;;;;;0.10;0.10;;;;;;;7.68;100.00;99884.25;5003037;28;20135;-75
2022/11/16 07:34:34;;;;;;;0.10;0.10;;;;;;;7.49;100.00;99885.72;5007084;28;20476;-75
2022/11/16 07:36:59;;;;;;;0.10;0.10;;;;;;;7.64;100.00;99903.19;5007130;28;20046;-75
2022/11/16 07:39:25;;;;;;;0.10;0.10;;;;;;;7.76;100.00;99908.50;5007181;28;20030;-74
2022/11/16 07:41:52;;;;;;;0.10;0.10;;;;;;;7.73;100.00;99901.59;5000632;28;20044;-74
2022/11/16 07:44:17;;;;;;;0.20;0.20;;;;;;;7.47;100.00;99883.19;4987545;28;20475;-75
2022/11/16 07:46:43;;;;;;;0.10;0.10;;;;;;;7.70;100.00;99911.66;5005476;28;20037;-74
2022/11/16 07:49:16;;;;;;;0.10;0.10;;;;;;;7.69;100.00;99916.16;5003470;28;20030;-75
2022/11/16 07:51:41;;;;;;;0.10;0.10;;;;;;;7.69;100.00;99916.16;4990544;28;20938;-75
2022/11/16 07:54:13;;;;;;;0.10;0.10;;;;;;;8.03;100.00;99929.47;5004643;28;20116;-75
2022/11/16 07:56:38;;;;;;;0.10;0.10;;;;;;;7.85;100.00;99914.91;5003967;28;20471;-74
2022/11/16 07:59:04;;;;;;;0.20;0.20;;;;;;;7.93;100.00;99928.50;5006387;28;20045;-74
2022/11/16 08:01:31;;;;;;;0.10;0.10;;;;;;;7.84;100.00;99914.09;5005654;28;20518;-75
2022/11/16 08:03:57;;;;;;;0.65;0.20;;;;;;;8.28;100.00;99931.94;5003247;28;20029;-75
2022/11/16 08:06:24;;;;;;;0.10;0.10;;;;;;;8.32;100.00;99933.38;5002848;28;20486;-77
2022/11/16 08:08:49;;;;;;;0.10;0.10;;;;;;;8.14;100.00;99930.41;5004222;28;20137;-75
2022/11/16 08:11:15;;;;;;;0.10;0.10;;;;;;;8.22;100.00;99947.50;5005455;28;20132;-77
2022/11/16 08:13:41;;;;;;;0.10;0.10;;;;;;;8.29;100.00;99947.88;5007357;28;20037;-71
2022/11/16 08:16:08;;;;;;;0.10;0.10;;;;;;;8.36;100.00;99937.50;5006686;28;20523;-72
2022/11/16 08:18:34;;;;;;;0.10;0.10;;;;;;;8.40;100.00;99946.97;5005563;28;20079;-73
2022/11/16 08:21:00;;;;;;;0.10;0.10;;;;;;;8.30;100.00;99928.19;4998010;28;20030;-76
2022/11/16 08:23:26;;;;;;;0.10;0.10;;;;;;;8.35;100.00;99928.63;5002397;28;20121;-74
2022/11/16 08:25:51;;;;;;;0.10;0.10;;;;;;;8.52;100.00;99923.75;5006143;28;20029;-75
2022/11/16 08:28:17;;;;;;;0.20;0.20;;;;;;;8.49;100.00;99942.72;4986486;28;20034;-76
2022/11/16 08:30:42;;;;;;;0.10;0.10;;;;;;;8.49;100.00;99932.84;5004958;28;20061;-76
2022/11/16 08:33:08;;;;;;;0.13;0.13;;;;;;;8.62;100.00;99939.88;5002434;28;20034;-76
2022/11/16 08:35:34;;;;;;;0.10;0.10;;;;;;;8.75;100.00;99958.41;5003529;28;20036;-76
2022/11/16 08:38:00;;;;;;;0.10;0.10;;;;;;;8.85;100.00;99951.31;5002385;28;20034;-75
2022/11/16 08:40:25;;;;;;;0.20;0.20;;;;;;;8.83;100.00;99939.88;5003151;28;20037;-75
2022/11/16 08:42:55;;;;;;;0.10;0.10;;;;;;;8.89;100.00;99950.03;4988314;28;20029;-79
2022/11/16 08:45:21;;;;;;;0.20;0.20;;;;;;;8.87;100.00;99948.50;5007469;28;20043;-76
2022/11/16 08:47:46;;;;;;;0.10;0.10;;;;;;;9.12;100.00;99957.97;5002035;28;20047;-75
2022/11/16 08:50:12;;;;;;;0.10;0.10;;;;;;;9.04;100.00;99965.81;4998563;28;20033;-76
2022/11/16 08:52:37;;;;;;;0.20;0.20;;;;;;;8.98;100.00;99940.41;5003898;28;20068;-77
2022/11/16 08:55:02;;;;;;;0.10;0.10;;;;;;;8.92;100.00;99955.16;5003922;28;20527;-77
2022/11/16 08:57:28;;;;;;;0.17;0.17;;;;;;;9.16;100.00;99972.75;5003420;28;20535;-77
2022/11/16 08:59:53;;;;;;;0.10;0.10;;;;;;;9.36;100.00;99978.25;5007228;28;20030;-75
2022/11/16 09:02:24;;;;;;;0.10;0.10;;;;;;;9.26;100.00;99983.56;5000252;28;20058;-72
2022/11/16 09:04:49;;;;;;;0.10;0.10;;;;;;;9.14;100.00;99956.84;5006174;28;20337;-76
2022/11/16 09:07:15;;;;;;;0.20;0.20;;;;;;;9.28;100.00;99979.75;5002628;28;20030;-76
2022/11/16 09:09:40;;;;;;;0.10;0.10;;;;;;;9.45;100.00;99972.94;5005369;28;20030;-75
2022/11/16 09:12:05;;;;;;;0.20;0.20;;;;;;;9.34;100.00;99973.00;5003683;28;20041;-78
2022/11/16 09:14:30;;;;;;;0.10;0.10;;;;;;;9.57;100.00;99973.69;5005290;28;20223;-74
2022/11/16 09:16:56;;;;;;;0.10;0.10;;;;;;;9.52;100.00;99991.19;4986063;28;20209;-74
2022/11/16 09:19:21;;;;;;;0.10;0.10;;;;;;;9.72;100.00;99970.63;5020505;28;20092;-74
2022/11/16 09:21:46;;;;;;;0.13;0.13;;;;;;;9.96;100.00;99967.63;4986543;28;20061;-77
2022/11/16 09:24:12;;;;;;;0.10;0.10;;;;;;;10.09;100.00;99991.50;5006636;28;20041;-77
2022/11/16 09:26:37;;;;;;;0.10;0.10;;;;;;;9.92;100.00;99973.41;4989851;28;20113;-76
2022/11/16 09:29:03;;;;;;;0.13;0.13;;;;;;;10.06;100.00;99975.69;5003290;28;20061;-75
2022/11/16 09:31:31;;;;;;;0.20;0.20;;;;;;;10.14;100.00;99996.47;5005521;28;20028;-74
2022/11/16 09:33:57;;;;;;;0.10;0.10;;;;;;;10.10;100.00;99977.13;4998895;28;20041;-75
2022/11/16 09:36:23;;;;;;;0.10;0.10;;;;;;;10.26;100.00;99987.31;5004929;28;20029;-73
2022/11/16 09:38:49;;;;;;;0.10;0.10;;;;;;;10.28;100.00;99974.63;5003402;28;20057;-76
2022/11/16 09:41:14;;;;;;;0.10;0.10;;;;;;;10.77;100.00;99992.63;5004598;28;20057;-75
2022/11/16 09:43:59;;;;;;;0.10;0.10;;;;;;;10.97;100.00;99988.09;4998843;28;20125;-75
2022/11/16 09:46:30;;;;;;;0.20;0.20;;;;;;;10.81;100.00;99988.66;5004048;28;20357;-73
2022/11/16 09:48:57;;;;;;;0.10;0.10;;;;;;;10.85;100.00;99990.09;5004198;28;20041;-76
2022/11/16 09:51:23;;;;;;;0.10;0.10;;;;;;;10.95;100.00;100001.66;4990092;28;20033;-74
2022/11/16 09:54:00;;;;;;;0.10;0.10;;;;;;;11.21;100.00;99987.59;5003694;28;20061;-75
2022/11/16 09:56:26;;;;;;;0.20;0.20;;;;;;;11.54;100.00;100000.66;4987004;28;20034;-75
2022/11/16 09:59:07;;;;;;;0.20;0.20;;;;;;;11.27;100.00;100004.97;4987150;28;20492;-73
2022/11/16 10:01:53;;;;;;;0.10;0.10;;;;;;;11.41;100.00;100003.69;5000948;28;20441;-77
2022/11/16 10:04:28;;;;;;;0.15;0.15;;;;;;;11.44;100.00;99992.63;4995716;28;20472;-74
2022/11/16 10:07:01;;;;;;;0.10;0.10;;;;;;;11.96;100.00;99992.16;4997743;28;20038;-73
2022/11/16 10:09:26;;;;;;;0.10;0.10;;;;;;;11.47;100.00;99986.97;4988499;28;20056;-75
2022/11/16 10:12:05;;;;;;;0.10;0.10;;;;;;;11.94;100.00;100007.59;4984740;28;20408;-75
2022/11/16 10:14:45;;;;;;;0.15;0.15;;;;;;;12.21;100.00;99970.94;4985858;28;20346;-77
2022/11/16 10:17:22;;;;;;;0.10;0.10;;;;;;;12.15;100.00;100002.00;5003690;28;20037;-73
2022/11/16 10:20:10;;;;;;;0.10;0.10;;;;;;;12.14;100.00;99992.25;5007838;28;20037;-75
2022/11/16 10:22:49;;;;;;;0.10;0.10;;;;;;;12.47;100.00;100009.72;4989979;28;20148;-77
2022/11/16 10:25:20;;;;;;;0.10;0.10;;;;;;;12.35;100.00;100009.97;5007867;28;20029;-76
2022/11/16 10:28:13;;;;;;;0.20;0.20;;;;;;;12.63;100.00;100009.91;5008722;28;20464;-73
2022/11/16 10:30:45;;;;;;;0.10;0.10;;;;;;;12.60;100.00;100007.53;5002956;28;20061;-75
2022/11/16 10:33:14;;;;;;;0.20;0.20;;;;;;;11.63;100.00;99980.16;5004781;28;20112;-75
2022/11/16 10:35:52;;;;;;;0.13;0.13;;;;;;;12.14;100.00;100003.00;4983035;28;20044;-75
2022/11/16 10:38:24;;;;;;;0.10;0.10;;;;;;;12.21;100.00;99992.47;5002544;28;20037;-76
2022/11/16 10:40:53;;;;;;;0.10;0.10;;;;;;;12.41;100.00;99981.56;4980711;28;20038;-76
2022/11/16 10:43:30;;;;;;;0.10;0.10;;;;;;;12.68;100.00;100006.75;4998442;28;20026;-73
2022/11/16 10:46:08;;;;;;;0.10;0.10;;;;;;;12.80;100.00;99994.75;5008331;28;20443;-75
2022/11/16 10:48:38;;;;;;;0.10;0.10;;;;;;;13.20;99.16;100012.25;4989907;28;20424;-76
2022/11/16 10:51:04;;;;;;;0.10;0.10;;;;;;;13.21;99.95;100015.81;5006412;28;20033;-74
2022/11/16 10:53:37;;;;;;;0.10;0.10;;;;;;;13.12;96.55;100008.66;5005947;28;20041;-76
2022/11/16 10:56:16;;;;;;;0.10;0.10;;;;;;;13.30;96.77;100008.63;5004458;28;20033;-73
2022/11/16 10:58:51;;;;;;;0.20;0.20;;;;;;;13.29;95.58;99999.66;5004189;28;20061;-75
2022/11/16 11:01:27;;;;;;;0.10;0.10;;;;;;;13.47;94.09;100004.22;4988170;28;20046;-74
2022/11/16 11:03:52;;;;;;;0.20;0.20;;;;;;;13.72;91.57;99998.97;5002559;28;20369;-74
2022/11/16 11:06:17;;;;;;;0.10;0.10;;;;;;;13.94;89.88;99986.72;5007218;28;20068;-69
2022/11/16 11:08:43;;;;;;;0.10;0.10;;;;;;;14.36;90.37;99993.97;5006999;28;20064;-69
2022/11/16 11:14:03;;;;;;;;;;;;;;;14.35;87.49;99981.47;5005480;28;20446;-74
2022/11/16 11:16:29;;;;;;;0.10;0.10;;;;;;;14.50;88.32;99967.31;5007602;28;19925;-75
2022/11/16 11:18:54;;;;;;;0.13;0.13;;;;;;;14.68;88.62;99975.28;5004742;28;20585;-72
2022/11/16 11:21:27;;;;;;;0.10;0.10;;;;;;;14.85;86.63;99989.66;4997076;28;20061;-72
2022/11/16 11:23:55;;;;;;;0.10;0.10;;;;;;;14.44;85.08;99968.81;5005136;28;20428;-74
2022/11/16 11:26:29;;;;;;;0.10;0.10;;;;;;;15.10;82.90;99966.16;5006764;28;20444;-76
2022/11/16 11:28:55;;;;;;;0.17;0.17;;;;;;;14.34;85.53;99962.72;5000577;28;20037;-73
2022/11/16 11:31:32;;;;;;;0.10;0.10;;;;;;;13.55;86.87;99950.31;5005340;28;20097;-74
2022/11/16 11:34:33;;;;;;;0.00;0.00;;;;;;;12.22;96.15;99943.03;5005893;28;20026;-75
2022/11/16 11:37:00;;;;;;;0.10;0.10;;;;;;;11.88;99.32;99975.09;5002981;28;20476;-74
2022/11/16 11:39:34;;;;;;;0.10;0.10;;;;;;;11.67;100.00;99958.19;4990473;28;20092;-73
2022/11/16 11:42:05;;;;;;;0.10;0.10;;;;;;;11.65;100.00;99972.78;4985245;28;20166;-74
2022/11/16 11:44:37;;;;;;;0.10;0.10;;;;;;;11.78;100.00;99959.00;4988972;28;20048;-75
2022/11/16 11:47:20;;;;;;;0.10;0.10;;;;;;;12.42;100.00;99948.28;4990103;28;20038;-74
2022/11/16 11:49:52;;;;;;;0.10;0.10;;;;;;;13.28;96.18;99933.28;5003305;28;20030;-76
2022/11/16 11:52:26;;;;;;;0.10;0.10;;;;;;;13.09;94.11;99960.44;5004133;28;20026;-76
2022/11/16 11:54:53;;;;;;;0.10;0.10;;;;;;;12.75;96.82;99935.13;4997615;28;20422;-73
2022/11/16 11:57:19;;;;;;;0.10;0.10;;;;;;;13.41;92.50;99951.75;5005283;28;20459;-74
2022/11/16 11:59:45;;;;;;;0.10;0.10;;;;;;;12.84;95.40;99944.97;4999547;28;20041;-72
2022/11/16 12:02:43;;;;;;;0.20;0.20;;;;;;;13.63;94.59;99954.91;5003080;28;20484;-77
2022/11/16 12:05:26;;;;;;;0.03;0.03;;;;;;;12.62;94.49;99957.06;5007630;28;20114;-75
2022/11/16 12:08:28;;;;;;;0.10;0.10;;;;;;;12.94;95.29;99962.84;4998531;28;20029;-75
2022/11/16 12:11:11;;;;;;;0.10;0.10;;;;;;;12.55;97.19;99951.44;5007218;28;20041;-73
2022/11/16 12:13:50;;;;;;;0.00;0.00;;;;;;;12.35;97.26;99957.94;5004685;28;20034;-75
2022/11/16 12:16:24;;;;;;;0.00;0.00;;;;;;;12.23;99.38;99957.34;5004571;28;20728;-78
2022/11/16 12:18:59;;;;;;;0.10;0.10;;;;;;;12.29;99.67;99945.97;4986902;28;20023;-73
2022/11/16 12:21:36;;;;;;;;;;;;;;;12.93;96.75;99945.88;4989437;28;20462;-74